Detalii statie AGROSAMI SACALAZ [00001988]

Toti senzorii

Date Temperatura solului [C]Precipitatii [mm]Voltaj baterie [mV]Leaf Wetness [Min]HC Air temperature [C]HC Relative humidity [%]Punctul de roua [C]
medieminmaxsumaultimatimpmedieminmaxmediemediemin
2019-06-15 17:00:00 0 7324 36.98 35.62 37.95 0 0 0
2019-06-15 18:00:00 0 7324 32.54 30.76 36.63 0 0 0
2019-06-15 19:00:00 0 7206 30.2 28.41 31.49 0 0 0
2019-06-15 20:00:00 0 7128 27.94 26.61 28.83 0 0 0
2019-06-15 21:00:00 0 7040 25.49 24.34 26.69 0 0 0
2019-06-15 22:00:00 0 7020 23.86 23.58 24.31 0 0 0
2019-06-15 23:00:00 0 7000 22.91 21.85 23.69 8.33 0
2019-06-16 00:00:00 0 6982 21.49 21.06 21.75 0 0 0
2019-06-16 01:00:00 0 6992 20.17 19.46 21.28 0 0 0
2019-06-16 02:00:00 0 6992 19.25 18.96 19.84 0 0 0
2019-06-16 03:00:00 0 6992 20.01 19.73 20.3 0 0 0
2019-06-16 04:00:00 0 6972 19.18 18.37 19.77 0 0 0
2019-06-16 05:00:00 0 6972 18.17 17.47 18.79 0 0 0
2019-06-16 06:00:00 0 7000 18.67 17.89 20.25 0 0 0
2019-06-16 07:00:00 0 7040 21.34 20.45 22.35 0 0 0
2019-06-16 08:00:00 0 7138 26.8 22.6 29.34 0 0 0
2019-06-16 09:00:00 0 7166 30.71 29.19 32.83 0 0 0
2019-06-16 10:00:00 0 7314 33.07 32.44 33.74 0 0 0
2019-06-16 11:00:00 0 7324 34.89 33.87 36.3 1.92 0
2019-06-16 12:00:00 0 7324 36.58 35.35 37.41 21.49 10.2 0
2019-06-16 13:00:00 0 7314 37.57 37.57 37.57 0 0 0
2019-06-16 14:00:00 0 7324 37.65 36.75 38.61 0 0 0
2019-06-16 15:00:00 0 7324 55 38.41 37.63 39.23 0.18 0
2019-06-16 16:00:00 0 7324 37.56 36.77 38.52 4.11 0
2019-06-16 17:00:00 0 7324 36.46 35.28 37.81 13.65 0.2 -27.1
2019-06-16 18:00:00 0 7332 32.54 29.23 35.65 29.39 11.7 8.4
2019-06-16 19:00:00 0 7186 31.17 30.41 32.58 8.47 -10.5 -31.2
2019-06-16 20:00:00 0 7020 29.67 27.54 32.42 12.87 -4.4 -22.7
2019-06-16 21:00:00 0 6982 25.99 23.81 27.07 15.58 -4.1 -21.8
2019-06-16 22:00:00 0 6992 22.66 22.27 23.58 5.68 0
2019-06-16 23:00:00 0 6982 22.53 22.13 22.84 0 0 0
2019-06-17 00:00:00 0 6962 22.21 21.27 23.16 5.85 -2.6 0
2019-06-17 01:00:00 0 6972 21.2 21.04 21.31 1.41 -2.5 0
2019-06-17 02:00:00 0 6952 20.82 20.3 21.25 1.86 0
2019-06-17 03:00:00 0 6962 19.89 19.69 20.29 0 0 0
2019-06-17 04:00:00 0 6962 19.45 19.26 19.72 0 0 0
2019-06-17 05:00:00 0 6952 19.38 19.29 19.46 0 0 0
2019-06-17 06:00:00 0 6992 19.61 19.43 19.79 0.01 0 0
2019-06-17 07:00:00 0 7088 20.54 19.82 21.24 0 0 0
2019-06-17 08:00:00 0 7254 21.5 21.22 22.22 0 0 0
2019-06-17 09:00:00 0 7324 23.34 22.44 23.99 0 0 0
2019-06-17 10:00:00 0 7304 22.5 22.22 22.83 0.07 0 0
2019-06-17 11:00:00 0 7332 23.89 22.46 25.45 0 0 0
2019-06-17 12:00:00 0 7332 27.01 25.32 27.92 0 0 0
2019-06-17 13:00:00 0 7332 28.48 27.43 29.63 0 0 0
2019-06-17 14:00:00 0 7332 28.73 27.74 29.58 0 0 0
2019-06-17 15:00:00 0 7324 30.17 29.54 30.86 0 0 0
2019-06-17 16:00:00 0 7332 30.04 28.55 31.5 0.97 0